Time;durP1;ratioP1;P1;durP2;ratioP2;P2;SDS_P1;SDS_P2;PMS_P1;PMS_P2;Temp;Humidity;BMP_temperature;BMP_pressure;BME280_temperature;BME280_humidity;BME280_pressure;Samples;Min_cycle;Max_cycle;Signal;HPM_P1;HPM_P2
2021/01/10 00:02:09;;;;;;;9.54;6.46;;;;;;;-3.66;80.37;100046.00;2282520;67;22926;-71
2021/01/10 00:05:18;;;;;;;11.42;6.64;;;;;;;-3.70;80.23;100044.94;2283575;70;20170;-71
2021/01/10 00:08:20;;;;;;;12.04;7.43;;;;;;;-3.75;80.22;100043.78;2278638;70;20220;-71
2021/01/10 00:11:22;;;;;;;9.77;7.24;;;;;;;-3.80;80.24;100037.53;2283622;70;20253;-71
2021/01/10 00:14:24;;;;;;;11.31;6.94;;;;;;;-3.84;80.16;100047.41;2284375;70;20219;-71
2021/01/10 00:17:25;;;;;;;10.17;6.72;;;;;;;-3.86;80.03;100041.34;2283206;67;20938;-76
2021/01/10 00:20:27;;;;;;;12.14;6.90;;;;;;;-3.87;80.09;100043.00;2283360;70;20206;-76
2021/01/10 00:23:29;;;;;;;11.77;7.21;;;;;;;-3.90;80.17;100047.91;2283603;70;20151;-77
2021/01/10 00:26:35;;;;;;;12.08;7.21;;;;;;;-3.93;80.08;100040.09;2284630;70;20150;-76
2021/01/10 00:29:38;;;;;;;9.69;6.76;;;;;;;-3.98;80.00;100042.31;2283533;70;20565;-76
2021/01/10 00:35:42;;;;;;;12.04;7.40;;;;;;;-4.07;80.04;100043.41;2280213;70;20324;-71
2021/01/10 00:38:44;;;;;;;11.39;7.29;;;;;;;-4.10;80.10;100036.50;2275616;70;20631;-71
2021/01/10 00:41:45;;;;;;;10.87;7.20;;;;;;;-4.13;80.20;100037.94;2276446;70;20160;-71
2021/01/10 00:44:48;;;;;;;11.28;7.19;;;;;;;-4.15;80.09;100037.84;2276731;70;20207;-71
2021/01/10 00:47:53;;;;;;;13.96;8.36;;;;;;;-4.17;79.93;100033.47;2282252;67;20316;-71
2021/01/10 00:50:55;;;;;;;12.77;7.61;;;;;;;-4.20;80.49;100040.88;2282999;70;20361;-71
2021/01/10 00:53:56;;;;;;;10.19;7.10;;;;;;;-4.17;80.96;100028.38;2283429;70;20143;-71
2021/01/10 00:56:59;;;;;;;12.97;7.69;;;;;;;-4.15;81.11;100025.16;2282814;70;20243;-71
2021/01/10 01:00:01;;;;;;;11.60;7.46;;;;;;;-4.16;81.00;100032.69;2284231;70;20317;-71
2021/01/10 01:03:02;;;;;;;11.38;7.93;;;;;;;-4.21;80.81;100034.94;2283159;67;20553;-71
2021/01/10 01:06:10;;;;;;;12.44;6.98;;;;;;;-4.25;80.65;100040.59;2282943;70;20589;-71
2021/01/10 01:09:12;;;;;;;10.54;6.92;;;;;;;-4.30;80.61;100036.88;2284241;70;20589;-71
2021/01/10 01:12:14;;;;;;;10.62;6.57;;;;;;;-4.32;80.59;100040.94;2283193;70;20132;-71
2021/01/10 01:15:15;;;;;;;9.77;6.66;;;;;;;-4.34;80.58;100040.84;2282349;67;23711;-71
2021/01/10 01:18:18;;;;;;;11.19;6.73;;;;;;;-4.36;80.60;100044.06;2283425;70;20167;-71
2021/01/10 01:21:20;;;;;;;9.91;6.46;;;;;;;-4.39;80.71;100048.94;2284055;70;20178;-71
2021/01/10 01:24:22;;;;;;;11.07;6.72;;;;;;;-4.43;80.54;100045.34;2283239;70;20151;-71
2021/01/10 01:27:24;;;;;;;11.08;6.48;;;;;;;-4.44;80.54;100048.66;2284235;70;20172;-71
2021/01/10 01:30:26;;;;;;;8.66;6.23;;;;;;;-4.44;80.88;100048.66;2281521;67;21880;-72
2021/01/10 01:33:28;;;;;;;9.41;6.84;;;;;;;-4.43;81.05;100042.81;2283383;70;20166;-71
2021/01/10 01:36:29;;;;;;;10.00;6.94;;;;;;;-4.47;80.90;100051.00;2283200;70;20163;-71
2021/01/10 01:39:31;;;;;;;8.47;6.16;;;;;;;-4.47;80.83;100047.59;2284461;70;20665;-71
2021/01/10 01:42:33;;;;;;;12.56;7.03;;;;;;;-4.50;80.73;100052.44;2283023;70;20163;-71
2021/01/10 01:45:35;;;;;;;10.93;6.60;;;;;;;-4.56;80.72;100051.25;2281260;67;21179;-71
2021/01/10 01:48:41;;;;;;;9.23;6.36;;;;;;;-4.56;80.84;100063.06;2276229;70;20194;-71
2021/01/10 01:51:44;;;;;;;9.34;6.26;;;;;;;-4.59;80.86;100070.47;2275803;70;20152;-71
2021/01/10 01:54:46;;;;;;;11.19;6.74;;;;;;;-4.62;80.91;100063.53;2275998;70;20219;-71
2021/01/10 01:57:47;;;;;;;9.16;6.28;;;;;;;-4.63;80.79;100071.03;2276952;70;20159;-72
2021/01/10 02:00:50;;;;;;;7.32;5.59;;;;;;;-4.66;80.81;100069.19;2275633;67;21708;-71
2021/01/10 02:04:05;;;;;;;8.36;6.20;;;;;;;-4.68;80.84;100070.72;2275759;70;20162;-71
2021/01/10 02:07:24;;;;;;;9.09;6.62;;;;;;;-4.70;80.79;100071.38;2275091;70;20169;-71
2021/01/10 02:10:32;;;;;;;9.67;6.53;;;;;;;-4.74;80.74;100070.31;2278867;70;20135;-72
2021/01/10 02:13:37;;;;;;;9.33;6.31;;;;;;;-4.78;80.78;100070.00;2273482;70;20163;-76
2021/01/10 02:16:39;;;;;;;11.37;6.50;;;;;;;-4.83;80.66;100066.31;2276798;67;28940;-76
2021/01/10 02:19:56;;;;;;;10.71;6.57;;;;;;;-4.86;80.76;100069.47;2282054;70;20151;-76
2021/01/10 02:23:12;;;;;;;8.48;5.84;;;;;;;-4.87;80.96;100063.53;2282733;70;21288;-75
2021/01/10 02:26:14;;;;;;;9.17;5.33;;;;;;;-4.88;80.96;100068.50;2282679;70;20169;-76
2021/01/10 02:29:16;;;;;;;7.74;6.16;;;;;;;-4.90;81.02;100067.53;2283650;70;20185;-76
2021/01/10 02:32:21;;;;;;;7.97;5.43;;;;;;;-4.92;80.92;100062.38;2282945;67;20179;-76
2021/01/10 02:35:23;;;;;;;8.28;5.49;;;;;;;-4.93;81.10;100059.72;2283968;70;20196;-76
2021/01/10 02:38:48;;;;;;;8.83;5.63;;;;;;;-4.94;81.09;100061.38;2281615;70;20172;-75
2021/01/10 02:41:55;;;;;;;9.63;5.81;;;;;;;-4.95;81.11;100052.03;2282828;70;20248;-76
2021/01/10 02:45:08;;;;;;;8.24;5.96;;;;;;;-4.97;81.06;100057.78;2283337;70;20196;-76
2021/01/10 02:48:11;;;;;;;9.48;5.43;;;;;;;-4.98;81.13;100056.03;2282129;68;20302;-76
2021/01/10 02:51:13;;;;;;;8.87;5.78;;;;;;;-5.00;80.97;100061.00;2284267;70;20155;-76
2021/01/10 02:54:15;;;;;;;7.82;5.16;;;;;;;-4.99;81.21;100054.28;2282797;70;20625;-76
2021/01/10 02:57:26;;;;;;;8.83;5.38;;;;;;;-4.99;81.29;100049.19;2282889;70;20172;-76
2021/01/10 03:00:29;;;;;;;8.52;5.20;;;;;;;-5.03;81.48;100054.81;2281754;68;23489;-76
2021/01/10 03:03:32;;;;;;;9.53;5.52;;;;;;;-5.05;81.45;100051.31;2284043;70;20881;-77
2021/01/10 03:06:36;;;;;;;9.13;5.81;;;;;;;-5.05;81.52;100052.19;2283978;70;20171;-75
2021/01/10 03:09:38;;;;;;;9.01;5.61;;;;;;;-5.07;81.41;100050.31;2283808;70;20184;-76
2021/01/10 03:12:40;;;;;;;8.29;5.41;;;;;;;-5.10;81.30;100052.66;2284541;70;20175;-76
2021/01/10 03:15:44;;;;;;;9.60;5.30;;;;;;;-5.15;81.12;100044.75;2283552;67;21651;-76
2021/01/10 03:18:46;;;;;;;7.17;5.12;;;;;;;-5.17;81.17;100043.78;2284673;70;20171;-76
2021/01/10 03:21:48;;;;;;;9.46;5.82;;;;;;;-5.18;81.10;100040.38;2283598;70;20196;-76
2021/01/10 03:24:49;;;;;;;7.74;5.23;;;;;;;-5.20;81.25;100039.38;2284909;70;20217;-76
2021/01/10 03:27:51;;;;;;;9.29;5.44;;;;;;;-5.17;81.68;100032.00;2284112;70;20175;-76
2021/01/10 03:30:53;;;;;;;9.02;5.49;;;;;;;-5.14;81.95;100032.97;2284925;67;20151;-76
2021/01/10 03:33:55;;;;;;;6.91;4.84;;;;;;;-5.15;81.88;100041.34;2284718;70;20226;-76
2021/01/10 03:36:56;;;;;;;7.14;5.29;;;;;;;-5.18;81.73;100042.91;2285273;70;20173;-76
2021/01/10 03:39:58;;;;;;;9.01;5.28;;;;;;;-5.19;81.72;100038.63;2285493;70;20240;-76
2021/01/10 03:43:02;;;;;;;7.66;4.91;;;;;;;-5.22;81.70;100038.38;2284484;70;20244;-76
2021/01/10 03:46:04;;;;;;;7.31;4.89;;;;;;;-5.24;81.78;100047.53;2283785;67;20862;-76
2021/01/10 03:49:05;;;;;;;6.77;4.74;;;;;;;-5.31;81.81;100037.78;2285315;70;20147;-76
2021/01/10 03:52:07;;;;;;;7.33;5.06;;;;;;;-5.30;82.42;100046.25;2285294;70;20895;-76
2021/01/10 03:55:10;;;;;;;10.03;5.04;;;;;;;-5.31;82.72;100047.91;2285880;70;20170;-76
2021/01/10 03:58:12;;;;;;;7.83;4.91;;;;;;;-5.28;82.96;100042.16;2285363;70;20191;-76
2021/01/10 04:01:13;;;;;;;9.20;5.34;;;;;;;-5.26;82.80;100053.25;2284347;67;27293;-77
2021/01/10 04:04:15;;;;;;;7.28;5.04;;;;;;;-5.27;82.67;100044.78;2283519;70;20150;-76
2021/01/10 04:07:16;;;;;;;6.92;4.80;;;;;;;-5.26;82.62;100049.06;2284359;70;20172;-76
2021/01/10 04:10:18;;;;;;;7.32;5.01;;;;;;;-5.28;82.42;100043.03;2283248;70;20690;-76
2021/01/10 04:13:20;;;;;;;7.76;4.73;;;;;;;-5.30;82.37;100039.53;2283454;70;20230;-76
2021/01/10 04:16:22;;;;;;;6.40;4.61;;;;;;;-5.32;82.32;100040.19;2282033;67;21169;-76
2021/01/10 04:19:24;;;;;;;7.83;4.90;;;;;;;-5.32;82.34;100030.97;2283115;70;20267;-76
2021/01/10 04:22:26;;;;;;;8.23;4.69;;;;;;;-5.30;82.46;100037.00;2283674;70;20150;-79
2021/01/10 04:25:27;;;;;;;7.70;4.88;;;;;;;-5.32;82.44;100030.06;2284056;70;20562;-76
2021/01/10 04:28:30;;;;;;;8.24;5.30;;;;;;;-5.34;82.49;100032.50;2284295;70;20176;-75
2021/01/10 04:31:31;;;;;;;7.21;4.74;;;;;;;-5.35;82.28;100029.88;2283707;67;20487;-76
2021/01/10 04:34:34;;;;;;;8.20;5.17;;;;;;;-5.35;82.46;100030.75;2283731;70;20159;-75
2021/01/10 04:37:36;;;;;;;8.73;5.60;;;;;;;-5.32;82.51;100027.53;2283993;70;20147;-76
2021/01/10 04:40:38;;;;;;;9.16;5.62;;;;;;;-5.30;82.53;100028.53;2285224;70;20643;-76
2021/01/10 04:43:39;;;;;;;7.94;5.44;;;;;;;-5.34;82.35;100032.50;2282969;70;20181;-75
2021/01/10 04:46:42;;;;;;;10.36;5.53;;;;;;;-5.35;82.37;100040.88;2282642;67;20549;-75
2021/01/10 04:49:45;;;;;;;7.77;5.03;;;;;;;-5.35;82.36;100037.47;2283819;70;20255;-75
2021/01/10 04:52:52;;;;;;;7.40;4.87;;;;;;;-5.39;82.20;100031.28;2283714;70;20212;-75
2021/01/10 04:55:58;;;;;;;7.38;4.94;;;;;;;-5.43;81.99;100036.91;2280257;70;20177;-76
2021/01/10 04:59:06;;;;;;;7.72;4.86;;;;;;;-5.49;81.82;100032.31;2283497;70;20160;-76
2021/01/10 05:02:09;;;;;;;6.99;4.87;;;;;;;-5.50;81.88;100030.56;2282424;67;21544;-75
2021/01/10 05:05:11;;;;;;;8.61;5.21;;;;;;;-5.51;81.84;100036.41;2284940;70;20170;-76
2021/01/10 05:08:13;;;;;;;6.40;4.60;;;;;;;-5.59;81.61;100037.50;2283907;70;20146;-75
2021/01/10 05:11:17;;;;;;;8.27;5.30;;;;;;;-5.61;81.65;100041.59;2283957;70;20472;-75
2021/01/10 05:14:19;;;;;;;7.54;4.78;;;;;;;-5.62;81.58;100041.50;2282926;70;20172;-76
2021/01/10 05:17:21;;;;;;;8.27;4.73;;;;;;;-5.64;81.65;100036.31;2282276;67;20370;-76
2021/01/10 05:20:31;;;;;;;7.06;4.90;;;;;;;-5.68;81.41;100026.78;2284594;70;20169;-75
2021/01/10 05:23:32;;;;;;;9.14;5.19;;;;;;;-5.71;81.40;100026.56;2283254;70;20982;-76
2021/01/10 05:26:36;;;;;;;9.17;4.96;;;;;;;-5.69;81.48;100030.06;2282251;70;20553;-75
2021/01/10 05:29:46;;;;;;;6.47;5.20;;;;;;;-5.75;81.33;100032.16;2281708;70;20200;-76
2021/01/10 05:33:06;;;;;;;8.00;5.62;;;;;;;-5.69;81.70;100036.78;2282848;67;21750;-75
2021/01/10 05:36:08;;;;;;;8.74;5.26;;;;;;;-5.68;81.75;100039.41;2283448;70;20163;-76
2021/01/10 05:39:29;;;;;;;7.69;5.30;;;;;;;-5.69;81.69;100031.72;2284231;70;20178;-76
2021/01/10 05:42:33;;;;;;;9.32;5.29;;;;;;;-5.68;81.67;100036.88;2283622;70;20204;-76
2021/01/10 05:45:37;;;;;;;8.19;4.94;;;;;;;-5.72;81.33;100039.09;2282921;67;21754;-76
2021/01/10 05:48:42;;;;;;;8.42;5.38;;;;;;;-5.77;81.40;100038.75;2283264;70;20225;-76
2021/01/10 05:51:44;;;;;;;8.59;4.90;;;;;;;-5.78;81.34;100040.41;2282427;70;20159;-76
2021/01/10 05:54:53;;;;;;;7.74;4.99;;;;;;;-5.78;81.19;100040.41;2283399;70;20212;-75
2021/01/10 05:57:54;;;;;;;8.26;5.26;;;;;;;-5.79;81.10;100046.25;2288096;70;20151;-75
2021/01/10 06:01:08;;;;;;;8.61;5.52;;;;;;;-5.81;80.86;100040.19;2282579;67;28627;-75
2021/01/10 06:04:23;;;;;;;8.28;5.09;;;;;;;-5.80;80.85;100041.09;2284206;70;20155;-76
2021/01/10 06:07:30;;;;;;;7.67;5.12;;;;;;;-5.78;80.99;100037.88;2283406;70;20214;-76
2021/01/10 06:10:32;;;;;;;7.82;5.10;;;;;;;-5.77;80.92;100044.69;2284027;70;21259;-76
2021/01/10 06:13:46;;;;;;;7.56;4.98;;;;;;;-5.75;80.95;100043.91;2282820;70;20549;-76
2021/01/10 06:16:56;;;;;;;7.27;4.72;;;;;;;-5.77;80.75;100041.28;2283664;68;21118;-75
2021/01/10 06:20:02;;;;;;;7.67;5.16;;;;;;;-5.75;80.88;100044.81;2288113;70;20267;-76
2021/01/10 06:23:04;;;;;;;7.31;5.01;;;;;;;-5.75;80.85;100041.41;2283330;70;20154;-76
2021/01/10 06:26:06;;;;;;;7.03;4.78;;;;;;;-5.73;80.88;100039.88;2280224;70;20155;-76
2021/01/10 06:29:08;;;;;;;7.48;4.81;;;;;;;-5.74;80.57;100043.16;2280051;70;21123;-76
2021/01/10 06:32:11;;;;;;;8.28;4.88;;;;;;;-5.72;80.83;100040.00;2280951;67;23725;-75
2021/01/10 06:35:14;;;;;;;7.24;4.93;;;;;;;-5.69;80.83;100040.19;2281032;70;20221;-76
2021/01/10 06:38:22;;;;;;;7.97;5.09;;;;;;;-5.70;80.87;100046.03;2282621;70;21069;-76
2021/01/10 06:41:36;;;;;;;7.09;4.26;;;;;;;-5.68;80.80;100039.41;2282096;70;20158;-76
2021/01/10 06:44:41;;;;;;;5.27;4.17;;;;;;;-5.71;80.62;100044.28;2281538;70;20166;-77
2021/01/10 06:47:43;;;;;;;8.74;4.59;;;;;;;-5.71;80.56;100046.81;2281729;67;23928;-78
2021/01/10 06:50:45;;;;;;;5.84;4.26;;;;;;;-5.72;80.57;100051.75;2281444;70;20155;-78
2021/01/10 06:53:47;;;;;;;9.79;4.76;;;;;;;-5.74;80.35;100056.72;2282442;70;20155;-81
2021/01/10 06:56:50;;;;;;;7.56;5.41;;;;;;;-5.77;80.08;100057.34;2284502;70;20163;-79
2021/01/10 07:00:09;;;;;;;7.82;5.19;;;;;;;-5.84;79.91;100056.81;2282510;70;20960;-78
2021/01/10 07:03:12;;;;;;;8.68;4.83;;;;;;;-5.80;80.22;100051.19;2281291;70;20218;-79
2021/01/10 07:06:15;;;;;;;7.67;4.82;;;;;;;-5.74;80.49;100046.59;2282788;70;20151;-78
2021/01/10 07:09:17;;;;;;;7.61;4.51;;;;;;;-5.73;80.36;100044.94;2283763;70;21134;-81
2021/01/10 07:12:20;;;;;;;8.23;5.47;;;;;;;-5.71;80.34;100043.41;2282913;70;20163;-80
2021/01/10 07:15:22;;;;;;;6.57;4.61;;;;;;;-5.72;80.29;100042.50;2281884;67;27534;-78
2021/01/10 07:18:24;;;;;;;9.73;4.53;;;;;;;-5.71;80.17;100040.88;2287947;70;20151;-81
2021/01/10 07:21:34;;;;;;;10.37;4.20;;;;;;;-5.71;80.04;100045.91;2284217;70;20163;-77
2021/01/10 07:24:35;;;;;;;7.82;4.30;;;;;;;-5.71;80.09;100044.28;2283385;70;20175;-79
2021/01/10 07:27:37;;;;;;;7.72;4.97;;;;;;;-5.73;79.60;100039.88;2283877;70;20542;-78
2021/01/10 07:30:39;;;;;;;9.69;5.48;;;;;;;-5.72;79.65;100044.16;2284535;67;21223;-80
2021/01/10 07:33:42;;;;;;;7.91;4.97;;;;;;;-5.71;79.52;100053.50;2281586;70;20171;-79
2021/01/10 07:36:49;;;;;;;8.90;5.02;;;;;;;-5.71;79.73;100053.50;2282753;70;20167;-78
2021/01/10 07:40:01;;;;;;;7.17;5.31;;;;;;;-5.71;79.51;100048.44;2284759;70;20161;-78
2021/01/10 07:43:03;;;;;;;7.47;4.81;;;;;;;-5.78;79.43;100055.59;2288069;70;20183;-79
2021/01/10 07:46:05;;;;;;;7.04;4.93;;;;;;;-5.80;79.39;100054.59;2283413;67;20248;-78
2021/01/10 07:49:07;;;;;;;9.49;5.44;;;;;;;-5.71;79.69;100061.09;2283731;70;20159;-79
2021/01/10 07:52:09;;;;;;;10.29;5.88;;;;;;;-5.69;79.75;100060.44;2282935;70;20171;-79
2021/01/10 07:55:17;;;;;;;7.21;5.10;;;;;;;-5.65;80.16;100061.50;2287105;70;20826;-82
2021/01/10 07:58:21;;;;;;;11.21;5.81;;;;;;;-5.63;80.46;100059.97;2293715;70;20155;-82
2021/01/10 08:01:22;;;;;;;7.73;4.89;;;;;;;-5.57;80.45;100048.63;2295122;67;20931;-81
2021/01/10 08:04:34;;;;;;;9.78;5.59;;;;;;;-5.51;80.37;100048.19;2291855;70;20257;-81
2021/01/10 08:07:51;;;;;;;7.26;4.58;;;;;;;-5.48;80.10;100048.38;2291392;70;20175;-79
2021/01/10 08:10:56;;;;;;;7.68;5.20;;;;;;;-5.49;79.75;100060.16;2283790;70;20903;-78
2021/01/10 08:13:57;;;;;;;9.98;5.11;;;;;;;-5.56;79.96;100059.63;2284449;70;20571;-79
2021/01/10 08:16:59;;;;;;;8.61;5.38;;;;;;;-5.50;80.54;100060.94;2283739;67;20573;-71
2021/01/10 08:20:03;;;;;;;9.47;5.56;;;;;;;-5.42;81.20;100070.69;2283257;70;20284;-71
2021/01/10 08:23:06;;;;;;;10.48;5.87;;;;;;;-5.36;81.67;100066.06;2283029;70;20159;-71
2021/01/10 08:26:10;;;;;;;9.03;5.68;;;;;;;-5.27;82.21;100072.63;2283143;70;20581;-71
2021/01/10 08:29:14;;;;;;;9.17;5.56;;;;;;;-5.10;82.44;100065.31;2283138;70;20276;-71
2021/01/10 08:32:18;;;;;;;10.79;6.10;;;;;;;-4.95;82.42;100068.88;2282086;67;43135;-72
2021/01/10 08:35:20;;;;;;;10.70;6.19;;;;;;;-4.73;82.45;100081.31;2284654;70;20191;-78
2021/01/10 08:38:22;;;;;;;8.16;5.80;;;;;;;-4.51;82.11;100073.47;2283261;70;20182;-81
2021/01/10 08:41:26;;;;;;;10.44;5.71;;;;;;;-4.27;81.96;100085.25;2284720;70;20718;-79
2021/01/10 08:44:28;;;;;;;8.62;5.46;;;;;;;-3.99;81.65;100082.81;2284313;70;20217;-78
2021/01/10 08:47:37;;;;;;;10.53;6.04;;;;;;;-3.71;81.36;100081.25;2282988;67;22428;-82
2021/01/10 08:50:42;;;;;;;12.27;7.31;;;;;;;-3.47;80.51;100086.09;2282389;70;20189;-77
2021/01/10 08:53:43;;;;;;;9.59;6.36;;;;;;;-3.24;79.73;100090.91;2282871;70;20545;-78
2021/01/10 08:56:50;;;;;;;10.28;6.18;;;;;;;-3.08;79.13;100093.59;2282946;70;20594;-79
2021/01/10 08:59:53;;;;;;;10.39;6.24;;;;;;;-2.85;78.70;100092.47;2282641;70;20167;-79
2021/01/10 09:02:55;;;;;;;8.01;5.83;;;;;;;-2.66;77.97;100091.91;2284538;67;22266;-79
2021/01/10 09:05:58;;;;;;;12.30;8.26;;;;;;;-2.54;77.44;100094.25;2288149;70;20155;-80
2021/01/10 09:09:23;;;;;;;11.70;6.94;;;;;;;-2.37;77.14;100093.56;2290373;70;20147;-79
2021/01/10 09:12:35;;;;;;;12.14;8.03;;;;;;;-2.15;76.93;100093.16;2294319;70;20150;-81
2021/01/10 09:15:42;;;;;;;14.56;8.46;;;;;;;-1.94;76.68;100098.59;2283635;67;22034;-72
2021/01/10 09:18:47;;;;;;;11.77;7.99;;;;;;;-1.75;76.52;100092.84;2283001;70;20151;-71
2021/01/10 09:21:49;;;;;;;10.62;7.21;;;;;;;-1.45;76.62;100094.50;2281163;70;20185;-72
2021/01/10 09:24:51;;;;;;;12.61;7.58;;;;;;;-1.22;76.15;100090.69;2281797;70;20159;-72
2021/01/10 09:28:09;;;;;;;13.22;7.71;;;;;;;-1.11;75.16;100093.78;2281240;70;20613;-72
2021/01/10 09:31:10;;;;;;;11.78;7.36;;;;;;;-1.00;74.78;100096.09;2280712;67;22884;-71
2021/01/10 09:34:15;;;;;;;10.34;7.03;;;;;;;-0.87;74.49;100099.31;2281087;70;20214;-72
2021/01/10 09:37:17;;;;;;;14.41;7.56;;;;;;;-0.73;74.52;100100.88;2282726;70;20853;-71
2021/01/10 09:40:18;;;;;;;10.79;7.28;;;;;;;-0.57;74.53;100108.50;2283362;70;20642;-72
2021/01/10 09:43:42;;;;;;;10.66;6.63;;;;;;;-0.38;74.77;100101.00;2282396;70;20404;-71
2021/01/10 09:46:52;;;;;;;19.82;9.42;;;;;;;-0.15;74.79;100107.25;2282807;67;23717;-72
2021/01/10 09:49:53;;;;;;;14.03;7.74;;;;;;;0.08;74.31;100099.84;2284141;70;20876;-72
2021/01/10 09:52:55;;;;;;;15.14;7.80;;;;;;;0.28;74.18;100102.56;2281992;70;20172;-71
2021/01/10 09:55:57;;;;;;;11.56;6.86;;;;;;;0.41;73.59;100100.59;2280830;70;20171;-71
2021/01/10 09:58:59;;;;;;;10.73;6.76;;;;;;;0.47;73.17;100100.88;2282717;70;20166;-72
2021/01/10 10:02:15;;;;;;;13.02;6.86;;;;;;;0.60;73.32;100098.97;2280611;67;20193;-73
2021/01/10 10:05:20;;;;;;;8.75;6.14;;;;;;;0.72;72.96;100103.78;2281769;70;20166;-72
2021/01/10 10:08:22;;;;;;;10.45;5.78;;;;;;;0.80;72.50;100099.00;2281686;70;20358;-71
2021/01/10 10:11:24;;;;;;;8.00;5.63;;;;;;;0.87;72.25;100101.91;2281735;70;20339;-72
2021/01/10 10:14:26;;;;;;;7.31;5.59;;;;;;;0.89;72.06;100101.97;2281433;70;20278;-71
2021/01/10 10:17:31;;;;;;;5.78;4.64;;;;;;;0.94;72.19;100099.63;2281604;67;21001;-72
2021/01/10 10:20:34;;;;;;;6.58;5.29;;;;;;;0.88;71.85;100092.53;2280763;70;20402;-71
2021/01/10 10:23:35;;;;;;;5.47;4.90;;;;;;;0.73;72.07;100094.44;2282089;70;20151;-71
2021/01/10 10:26:41;;;;;;;6.11;4.80;;;;;;;0.64;72.86;100097.41;2281365;70;20333;-72
2021/01/10 10:29:43;;;;;;;6.39;4.31;;;;;;;0.56;73.08;100094.53;2282060;70;20289;-72
2021/01/10 10:32:44;;;;;;;4.91;4.33;;;;;;;0.52;73.10;100095.16;2280487;67;23432;-71
2021/01/10 10:35:46;;;;;;;6.17;5.19;;;;;;;0.44;73.18;100095.63;2281794;70;20175;-71
2021/01/10 10:38:47;;;;;;;7.29;4.97;;;;;;;0.41;73.56;100090.38;2281955;70;20669;-71
2021/01/10 10:41:49;;;;;;;6.11;4.61;;;;;;;0.34;73.69;100078.97;2282193;70;20319;-71
2021/01/10 10:44:50;;;;;;;6.59;5.24;;;;;;;0.33;73.70;100084.00;2281793;70;20321;-71
2021/01/10 10:47:52;;;;;;;10.07;5.09;;;;;;;0.32;74.00;100077.16;2280899;67;20575;-71
2021/01/10 10:50:54;;;;;;;8.79;5.53;;;;;;;0.35;74.21;100095.16;2282230;70;20323;-71
2021/01/10 10:53:55;;;;;;;8.69;5.48;;;;;;;0.36;74.06;100086.72;2281598;70;20582;-71
2021/01/10 10:56:58;;;;;;;8.47;5.68;;;;;;;0.38;74.23;100077.47;2282432;70;21301;-71
2021/01/10 11:00:03;;;;;;;8.93;6.31;;;;;;;0.42;74.58;100076.78;2285919;70;20151;-71
2021/01/10 11:03:05;;;;;;;8.24;4.91;;;;;;;0.44;74.22;100081.16;2278810;67;21851;-70
2021/01/10 11:06:06;;;;;;;10.59;5.16;;;;;;;0.45;73.89;100074.38;2281057;70;20282;-71
2021/01/10 11:09:10;;;;;;;5.90;4.10;;;;;;;0.47;74.43;100063.44;2282096;70;20155;-71
2021/01/10 11:12:13;;;;;;;5.54;4.16;;;;;;;0.52;74.17;100055.97;2281276;70;20173;-71
2021/01/10 11:15:15;;;;;;;4.29;3.52;;;;;;;0.57;74.00;100065.63;2282406;67;21316;-71
2021/01/10 11:18:16;;;;;;;4.28;3.21;;;;;;;0.60;73.21;100052.97;2284305;70;20224;-71
2021/01/10 11:21:18;;;;;;;3.21;2.88;;;;;;;0.63;72.50;100054.78;2284051;70;20162;-71
2021/01/10 11:24:20;;;;;;;2.67;2.47;;;;;;;0.70;72.29;100058.47;2283146;70;20196;-71
2021/01/10 11:27:22;;;;;;;2.88;2.53;;;;;;;0.74;72.22;100055.28;2282972;70;20166;-71
2021/01/10 11:30:24;;;;;;;2.86;2.58;;;;;;;0.74;71.44;100053.59;2283519;67;20178;-71
2021/01/10 11:33:29;;;;;;;2.65;2.35;;;;;;;0.74;70.85;100047.63;2283511;70;20183;-71
2021/01/10 11:36:32;;;;;;;3.30;2.71;;;;;;;0.78;71.09;100041.84;2283930;70;21004;-71
2021/01/10 11:39:33;;;;;;;2.36;2.14;;;;;;;0.82;71.01;100033.50;2283553;70;20891;-71
2021/01/10 11:42:35;;;;;;;2.46;2.26;;;;;;;0.86;71.04;100031.13;2283616;70;20183;-72
2021/01/10 11:45:38;;;;;;;2.89;2.64;;;;;;;0.89;70.22;100033.81;2282143;67;21608;-71
2021/01/10 11:48:43;;;;;;;2.37;2.13;;;;;;;0.95;70.36;100024.69;2280996;70;20334;-71
2021/01/10 11:51:45;;;;;;;2.61;2.41;;;;;;;0.99;70.33;100019.78;2283842;70;20641;-72
2021/01/10 11:54:47;;;;;;;3.42;2.20;;;;;;;1.04;70.03;100012.28;2283108;70;20381;-71
2021/01/10 11:57:48;;;;;;;2.44;2.08;;;;;;;1.10;69.91;100017.69;2284059;70;20159;-71
2021/01/10 12:00:51;;;;;;;2.19;2.03;;;;;;;1.12;69.92;100011.84;2283189;67;20438;-71
2021/01/10 12:03:53;;;;;;;2.18;1.89;;;;;;;1.19;69.68;100016.38;2282375;70;20294;-71
2021/01/10 12:06:57;;;;;;;2.85;2.30;;;;;;;1.26;70.16;99996.16;2283324;70;20203;-71
2021/01/10 12:09:59;;;;;;;2.04;1.88;;;;;;;1.30;69.31;99998.06;2282485;70;20298;-71
2021/01/10 12:13:03;;;;;;;2.92;1.92;;;;;;;1.34;68.81;99995.69;2281767;70;20602;-71
2021/01/10 12:16:04;;;;;;;2.24;2.04;;;;;;;1.38;68.48;99991.59;2283466;67;21916;-71
2021/01/10 12:19:06;;;;;;;2.40;2.20;;;;;;;1.42;67.86;99993.44;2282827;70;20163;-71
2021/01/10 12:22:08;;;;;;;1.60;1.50;;;;;;;1.49;69.05;99991.22;2283891;70;20493;-71
2021/01/10 12:25:10;;;;;;;2.81;1.81;;;;;;;1.54;67.86;99993.97;2283988;70;20776;-71
2021/01/10 12:28:12;;;;;;;2.67;2.13;;;;;;;1.61;68.49;100000.19;2282844;70;20600;-71
2021/01/10 12:31:16;;;;;;;2.35;1.69;;;;;;;1.64;67.98;99985.88;2281898;67;25991;-71
2021/01/10 12:34:18;;;;;;;1.85;1.75;;;;;;;1.67;67.28;99978.31;2282303;70;20991;-71
2021/01/10 12:37:19;;;;;;;1.90;1.70;;;;;;;1.71;66.82;99980.16;2283050;70;20319;-73
2021/01/10 12:40:21;;;;;;;2.28;2.06;;;;;;;1.77;67.13;99976.97;2283306;70;20799;-71
2021/01/10 12:43:23;;;;;;;2.60;1.88;;;;;;;1.81;66.84;99979.75;2283350;70;20311;-74
2021/01/10 12:46:29;;;;;;;1.90;1.80;;;;;;;1.81;65.65;99966.94;2281341;68;23972;-71
2021/01/10 12:49:30;;;;;;;1.64;1.54;;;;;;;1.85;65.37;99967.94;2283231;70;20294;-71
2021/01/10 12:52:34;;;;;;;2.31;2.14;;;;;;;1.91;65.59;99969.84;2285635;69;20354;-71
2021/01/10 12:55:36;;;;;;;1.51;1.41;;;;;;;1.93;65.22;99965.66;2290359;69;20361;-71
2021/01/10 12:58:38;;;;;;;2.04;1.42;;;;;;;1.94;63.97;99969.97;2289120;69;20457;-71
2021/01/10 13:01:39;;;;;;;1.67;1.51;;;;;;;1.92;64.12;99969.91;2288631;67;21178;-71
2021/01/10 13:04:41;;;;;;;1.44;1.34;;;;;;;1.95;64.05;99972.56;2289922;69;20745;-71
2021/01/10 13:07:48;;;;;;;1.20;1.10;;;;;;;1.96;63.74;99966.63;2289507;69;20317;-71
2021/01/10 13:10:50;;;;;;;1.19;1.09;;;;;;;1.94;62.08;99963.16;2288829;69;20336;-71
2021/01/10 13:13:51;;;;;;;1.76;1.50;;;;;;;1.96;62.20;99960.66;2288474;69;20954;-71
2021/01/10 13:16:53;;;;;;;1.86;1.50;;;;;;;1.97;61.95;99972.63;2288642;67;23178;-71
2021/01/10 13:19:56;;;;;;;1.52;1.42;;;;;;;1.96;62.51;99964.06;2289840;69;20400;-71
2021/01/10 13:23:00;;;;;;;1.76;1.66;;;;;;;1.94;62.19;99959.72;2289518;69;20304;-71
2021/01/10 13:26:02;;;;;;;2.09;1.56;;;;;;;1.94;62.45;99959.72;2289419;69;20309;-70
2021/01/10 13:29:04;;;;;;;2.36;1.19;;;;;;;1.95;62.59;99958.91;2289769;69;20284;-70
2021/01/10 13:32:05;;;;;;;1.83;1.20;;;;;;;1.95;62.46;99958.91;2289306;66;20398;-71
2021/01/10 13:35:08;;;;;;;1.48;1.34;;;;;;;1.92;62.36;99962.22;2288950;69;20300;-70
2021/01/10 13:38:09;;;;;;;2.70;1.65;;;;;;;1.94;62.68;99960.59;2289943;69;20883;-78
2021/01/10 13:41:14;;;;;;;1.75;1.41;;;;;;;1.95;62.42;99958.91;2289300;69;20355;-77
2021/01/10 13:44:15;;;;;;;2.11;1.70;;;;;;;1.96;62.42;99965.75;2288426;69;20336;-79
2021/01/10 13:47:17;;;;;;;3.25;1.90;;;;;;;1.94;61.69;99967.41;2288658;67;20307;-78
2021/01/10 13:50:19;;;;;;;2.15;1.13;;;;;;;1.91;61.34;99967.28;2289886;69;20342;-78
2021/01/10 13:53:20;;;;;;;1.21;1.11;;;;;;;1.89;62.05;99963.78;2294302;69;20562;-77
2021/01/10 13:56:25;;;;;;;3.15;2.00;;;;;;;1.85;61.94;99955.13;2297037;69;20863;-77
2021/01/10 13:59:26;;;;;;;2.30;1.41;;;;;;;1.84;61.52;99961.06;2297876;69;20299;-77
2021/01/10 14:02:28;;;;;;;2.04;1.41;;;;;;;1.81;61.76;99968.63;2295953;67;20623;-77
2021/01/10 14:05:30;;;;;;;1.44;1.20;;;;;;;1.76;60.88;99963.31;2296392;69;20295;-77
2021/01/10 14:08:33;;;;;;;1.10;0.96;;;;;;;1.75;60.88;99963.25;2296851;69;20309;-76
2021/01/10 14:11:34;;;;;;;1.41;1.31;;;;;;;1.74;61.35;99964.06;2297368;69;20485;-77
2021/01/10 14:14:36;;;;;;;1.46;1.36;;;;;;;1.71;60.90;99961.38;2296004;69;20321;-77
2021/01/10 14:17:37;;;;;;;6.73;1.66;;;;;;;1.70;60.86;99962.19;2295735;66;22080;-77
2021/01/10 14:20:40;;;;;;;1.08;0.98;;;;;;;1.67;61.23;99962.94;2295818;69;20518;-77